Time;durP1;ratioP1;P1;durP2;ratioP2;P2;SDS_P1;SDS_P2;PMS_P1;PMS_P2;Temp;Humidity;BMP_temperature;BMP_pressure;BME280_temperature;BME280_humidity;BME280_pressure;Samples;Min_cycle;Max_cycle;Signal;HPM_P1;HPM_P2
2023/11/09 00:01:29;;;;;;;;;;;;;;;8.53;59.20;97612.56;4974060;28;20377;-91
2023/11/09 00:04:17;;;;;;;;;;;;;;;8.47;59.53;97602.13;4971850;28;20326;-90
2023/11/09 00:07:05;;;;;;;;;;;;;;;8.36;59.81;97607.81;4974714;28;19925;-91
2023/11/09 00:09:57;;;;;;;;;;;;;;;8.30;59.93;97605.47;4991356;28;19930;-91
2023/11/09 00:12:50;;;;;;;;;;;;;;;8.34;59.55;97604.56;4983175;28;19937;-91
2023/11/09 00:15:39;;;;;;;;;;;;;;;8.36;59.82;97591.56;4988335;28;19949;-91
2023/11/09 00:18:30;;;;;;;;;;;;;;;8.14;60.46;97588.75;4980068;28;19926;-91
2023/11/09 00:21:18;;;;;;;;;;;;;;;8.22;60.13;97579.94;4985629;28;20042;-91
2023/11/09 00:24:10;;;;;;;;;;;;;;;8.21;60.13;97574.81;4982605;28;19925;-91
2023/11/09 00:27:03;;;;;;;;;;;;;;;8.08;60.48;97566.41;4971631;28;19932;-91
2023/11/09 00:29:52;;;;;;;;;;;;;;;8.02;60.33;97564.13;4976495;28;20297;-91
2023/11/09 00:32:40;;;;;;;;;;;;;;;7.97;60.98;97561.53;4977809;28;19926;-90
2023/11/09 00:35:29;;;;;;;;;;;;;;;8.07;60.47;97561.31;4975777;28;20393;-90
2023/11/09 00:38:19;;;;;;;;;;;;;;;7.81;61.25;97559.13;4976530;28;20019;-90
2023/11/09 00:41:07;;;;;;;;;;;;;;;7.86;61.26;97559.03;4989481;28;19926;-90
2023/11/09 00:43:59;;;;;;;;;;;;;;;7.51;62.16;97565.97;4991713;28;20036;-90
2023/11/09 00:46:47;;;;;;;;;;;;;;;7.39;62.40;97567.53;4992242;28;19948;-90
2023/11/09 00:49:35;;;;;;;;;;;;;;;7.64;61.73;97563.56;4977053;28;19929;-90
2023/11/09 00:52:23;;;;;;;;;;;;;;;7.79;61.15;97561.34;4978351;28;19930;-90
2023/11/09 00:55:11;;;;;;;;;;;;;;;7.79;61.12;97549.72;4995509;28;19933;-90
2023/11/09 00:58:01;;;;;;;;;;;;;;;7.71;61.12;97537.69;5008190;28;20447;-89
2023/11/09 01:00:51;;;;;;;;;;;;;;;7.69;61.06;97539.91;4977802;28;20369;-89
2023/11/09 01:03:39;;;;;;;;;;;;;;;7.58;61.13;97549.34;4989194;28;19953;-90
2023/11/09 01:06:27;;;;;;;;;;;;;;;7.58;61.41;97544.72;4978186;28;19926;-90
2023/11/09 01:09:17;;;;;;;;;;;;;;;7.65;60.91;97536.22;4990411;28;19926;-90
2023/11/09 01:12:05;;;;;;;;;;;;;;;7.66;61.03;97539.72;4988265;28;19948;-90
2023/11/09 01:14:54;;;;;;;;;;;;;;;7.61;61.01;97535.19;4984002;28;19953;-90
2023/11/09 01:17:45;;;;;;;;;;;;;;;7.63;60.89;97533.00;4989554;28;19934;-90
2023/11/09 01:20:34;;;;;;;;;;;;;;;7.59;61.03;97527.41;4984167;28;19926;-90
2023/11/09 01:23:23;;;;;;;;;;;;;;;7.46;61.29;97530.13;4991047;28;20403;-91
2023/11/09 01:26:12;;;;;;;;;;;;;;;7.54;61.04;97516.69;4978315;28;19930;-91
2023/11/09 01:29:00;;;;;;;;;;;;;;;7.52;61.08;97518.09;4986564;28;20385;-91
2023/11/09 01:31:49;;;;;;;;;;;;;;;7.44;61.18;97521.50;4978862;28;20063;-91
2023/11/09 01:34:38;;;;;;;;;;;;;;;7.34;61.21;97520.59;4972417;28;19933;-91
2023/11/09 01:37:26;;;;;;;;;;;;;;;7.45;60.84;97512.28;4988105;28;20004;-91
2023/11/09 01:40:15;;;;;;;;;;;;;;;7.48;60.94;97511.69;4971170;28;19936;-91
2023/11/09 01:43:03;;;;;;;;;;;;;;;7.50;61.22;97509.47;4980730;28;20048;-91
2023/11/09 01:45:52;;;;;;;;;;;;;;;7.43;61.10;97518.00;4993691;28;20005;-91
2023/11/09 01:48:40;;;;;;;;;;;;;;;7.41;61.07;97506.69;4985516;28;20408;-91
2023/11/09 01:51:30;;;;;;;;;;;;;;;7.39;61.31;97513.47;4998712;28;19926;-90
2023/11/09 01:54:18;;;;;;;;;;;;;;;7.33;61.14;97493.88;4986048;28;20053;-91
2023/11/09 01:57:06;;;;;;;;;;;;;;;7.01;62.03;97502.84;4990550;28;19949;-93
2023/11/09 01:59:54;;;;;;;;;;;;;;;7.13;61.60;97495.03;4976878;28;20373;-91
2023/11/09 02:02:48;;;;;;;;;;;;;;;7.16;61.43;97501.78;4973528;28;20373;-91
2023/11/09 02:05:38;;;;;;;;;;;;;;;7.27;61.49;97482.34;4971802;28;19934;-91
2023/11/09 02:08:27;;;;;;;;;;;;;;;7.20;61.28;97490.06;4981195;28;19933;-91
2023/11/09 02:11:17;;;;;;;;;;;;;;;7.26;61.08;97477.25;4975382;28;20176;-91
2023/11/09 02:14:05;;;;;;;;;;;;;;;7.19;60.88;97482.25;4988750;28;19930;-91
2023/11/09 02:16:54;;;;;;;;;;;;;;;7.26;60.84;97478.06;4971996;28;19933;-91
2023/11/09 02:19:42;;;;;;;;;;;;;;;7.17;61.04;97479.84;4973867;28;19946;-91
2023/11/09 02:22:30;;;;;;;;;;;;;;;7.30;60.95;97472.88;4978474;28;19938;-91
2023/11/09 02:25:20;;;;;;;;;;;;;;;7.20;60.94;97463.06;4971362;28;20080;-90
2023/11/09 02:28:10;;;;;;;;;;;;;;;7.14;61.12;97469.66;4986553;28;20293;-91
2023/11/09 02:30:58;;;;;;;;;;;;;;;6.99;61.20;97456.44;4978105;28;19926;-91
2023/11/09 02:33:47;;;;;;;;;;;;;;;7.06;60.93;97443.31;4977033;28;19926;-90
2023/11/09 02:36:35;;;;;;;;;;;;;;;7.10;61.10;97441.63;4977567;28;19937;-91
2023/11/09 02:39:26;;;;;;;;;;;;;;;7.16;60.71;97443.13;4977632;28;19926;-91
2023/11/09 02:42:16;;;;;;;;;;;;;;;7.08;60.88;97439.25;4976811;28;20856;-91
2023/11/09 02:45:04;;;;;;;;;;;;;;;7.11;60.69;97440.53;4969885;28;19926;-91
2023/11/09 02:47:53;;;;;;;;;;;;;;;7.05;61.07;97434.44;4962342;28;19933;-91
2023/11/09 02:50:41;;;;;;;;;;;;;;;7.03;60.94;97419.59;4966131;28;19926;-91
2023/11/09 02:53:29;;;;;;;;;;;;;;;7.16;60.49;97423.44;4958527;28;20020;-91
2023/11/09 02:56:17;;;;;;;;;;;;;;;7.12;60.75;97425.13;4952790;28;19961;-91
2023/11/09 02:59:07;;;;;;;;;;;;;;;6.90;61.40;97420.41;4956745;28;19940;-91
2023/11/09 03:01:56;;;;;;;;;;;;;;;7.06;60.64;97419.03;4957358;28;20028;-91
2023/11/09 03:04:46;;;;;;;;;;;;;;;7.04;60.36;97421.22;4951696;28;20005;-91
2023/11/09 03:07:35;;;;;;;;;;;;;;;6.96;60.76;97416.50;4973086;28;20476;-92
2023/11/09 03:10:24;;;;;;;;;;;;;;;7.05;60.58;97409.31;4976943;28;19934;-91
2023/11/09 03:13:12;;;;;;;;;;;;;;;6.94;60.60;97405.22;4980352;28;19927;-91
2023/11/09 03:16:02;;;;;;;;;;;;;;;6.78;61.27;97408.22;4982004;28;19965;-91
2023/11/09 03:18:50;;;;;;;;;;;;;;;6.85;61.46;97402.41;4965556;28;20452;-91
2023/11/09 03:21:38;;;;;;;;;;;;;;;6.92;61.19;97391.19;4966023;28;19930;-91
2023/11/09 03:24:29;;;;;;;;;;;;;;;6.97;60.93;97388.41;4953379;28;20015;-91
2023/11/09 03:27:18;;;;;;;;;;;;;;;6.98;60.92;97390.81;4972842;28;19932;-91
2023/11/09 03:30:07;;;;;;;;;;;;;;;6.89;60.58;97398.00;4954863;28;19948;-91
2023/11/09 03:32:57;;;;;;;;;;;;;;;6.87;60.58;97400.22;4953472;28;19990;-91
2023/11/09 03:35:45;;;;;;;;;;;;;;;6.98;60.28;97393.53;4962881;28;20271;-91
2023/11/09 03:38:34;;;;;;;;;;;;;;;6.91;60.42;97390.41;4961345;28;19926;-91
2023/11/09 03:41:23;;;;;;;;;;;;;;;6.85;60.54;97396.22;4948467;28;19957;-91
2023/11/09 03:44:11;;;;;;;;;;;;;;;6.42;61.54;97389.16;4973109;28;19937;-92
2023/11/09 03:47:00;;;;;;;;;;;;;;;6.70;61.32;97389.19;4992697;28;19926;-91
2023/11/09 03:49:50;;;;;;;;;;;;;;;6.69;60.66;97388.41;4969742;28;20301;-92
2023/11/09 03:52:39;;;;;;;;;;;;;;;6.81;60.73;97386.00;4985331;28;19930;-92
2023/11/09 03:55:27;;;;;;;;;;;;;;;6.71;60.78;97382.69;4977690;28;19932;-91
2023/11/09 03:58:15;;;;;;;;;;;;;;;6.49;61.56;97380.66;4972956;28;19930;-92
2023/11/09 04:01:04;;;;;;;;;;;;;;;6.53;61.38;97362.78;4974524;28;19926;-92
2023/11/09 04:03:55;;;;;;;;;;;;;;;6.55;61.74;97357.88;4972831;28;19934;-91
2023/11/09 04:06:46;;;;;;;;;;;;;;;6.57;61.37;97355.69;4985362;28;20050;-91
2023/11/09 04:09:35;;;;;;;;;;;;;;;6.65;60.79;97349.59;4977621;28;19952;-92
2023/11/09 04:12:23;;;;;;;;;;;;;;;6.64;61.33;97348.00;4980303;28;20372;-91
2023/11/09 04:15:11;;;;;;;;;;;;;;;6.52;61.07;97351.19;4979121;28;19933;-91
2023/11/09 04:18:00;;;;;;;;;;;;;;;6.62;61.17;97344.81;4973703;28;19933;-92
2023/11/09 04:20:48;;;;;;;;;;;;;;;6.69;60.70;97339.81;4978678;28;20017;-91
2023/11/09 04:23:38;;;;;;;;;;;;;;;6.51;61.21;97340.72;4989801;28;19929;-91
2023/11/09 04:26:27;;;;;;;;;;;;;;;6.50;61.53;97336.41;4991001;28;19933;-92
2023/11/09 04:29:15;;;;;;;;;;;;;;;6.27;62.05;97336.25;4983614;28;20016;-91
2023/11/09 04:32:04;;;;;;;;;;;;;;;6.46;61.20;97335.41;4984270;28;19985;-91
2023/11/09 04:34:52;;;;;;;;;;;;;;;6.62;61.03;97328.63;4992990;28;20020;-92
2023/11/09 04:37:41;;;;;;;;;;;;;;;6.46;61.65;97328.09;4979166;28;20052;-92
2023/11/09 04:40:31;;;;;;;;;;;;;;;6.59;60.99;97323.00;4975765;28;19926;-92
2023/11/09 04:43:19;;;;;;;;;;;;;;;6.62;60.81;97328.63;4992075;28;19925;-92
2023/11/09 04:46:10;;;;;;;;;;;;;;;6.51;60.56;97321.81;4985148;28;19933;-91
2023/11/09 04:49:06;;;;;;;;;;;;;;;6.51;60.62;97324.53;4981347;28;19926;-92
2023/11/09 04:51:55;;;;;;;;;;;;;;;6.59;60.34;97323.81;4994979;28;19933;-92
2023/11/09 04:54:56;;;;;;;;;;;;;;;6.67;60.32;97306.94;4976886;28;19933;-91
2023/11/09 05:07:03;;;;;;;;;;;;;;;6.62;59.98;97301.63;4983524;28;19930;-91
2023/11/09 05:09:51;;;;;;;;;;;;;;;6.75;59.53;97295.41;4984130;28;20419;-91
2023/11/09 05:12:40;;;;;;;;;;;;;;;6.87;59.59;97286.81;4988473;28;20400;-91
2023/11/09 05:15:30;;;;;;;;;;;;;;;6.92;58.81;97283.19;4980626;28;19985;-91
2023/11/09 05:18:18;;;;;;;;;;;;;;;7.06;58.78;97279.38;4989465;28;19926;-90
2023/11/09 05:21:07;;;;;;;;;;;;;;;7.06;58.61;97281.28;4977149;28;20376;-91
2023/11/09 05:23:55;;;;;;;;;;;;;;;7.19;58.15;97275.06;4975989;28;19932;-91
2023/11/09 05:26:46;;;;;;;;;;;;;;;7.23;57.66;97281.41;4976598;28;20025;-90
2023/11/09 05:29:34;;;;;;;;;;;;;;;7.12;57.50;97277.34;4991551;28;20057;-91
2023/11/09 05:32:24;;;;;;;;;;;;;;;7.02;58.05;97272.16;4989642;28;19930;-91
2023/11/09 05:35:17;;;;;;;;;;;;;;;7.03;58.27;97273.75;4997451;28;20229;-91
2023/11/09 05:38:08;;;;;;;;;;;;;;;7.18;57.47;97265.31;4988668;28;19926;-91
2023/11/09 05:40:56;;;;;;;;;;;;;;;7.05;57.73;97261.56;4978521;28;20239;-94
2023/11/09 05:43:45;;;;;;;;;;;;;;;7.13;57.60;97253.84;4976608;28;20294;-91
2023/11/09 05:46:34;;;;;;;;;;;;;;;6.88;58.49;97245.22;4979137;28;19926;-91
2023/11/09 05:49:23;;;;;;;;;;;;;;;7.03;58.07;97252.97;4980908;28;19929;-91
2023/11/09 05:52:16;;;;;;;;;;;;;;;7.22;57.52;97252.81;4980320;28;19936;-91
2023/11/09 05:55:05;;;;;;;;;;;;;;;7.31;57.32;97252.91;4976553;28;20102;-91
2023/11/09 05:57:54;;;;;;;;;;;;;;;7.25;57.18;97248.72;4990575;28;19926;-90
2023/11/09 06:00:42;;;;;;;;;;;;;;;7.15;57.20;97249.75;4974557;28;20388;-91
2023/11/09 06:03:30;;;;;;;;;;;;;;;7.16;57.16;97240.53;4974128;28;19957;-91
2023/11/09 06:06:20;;;;;;;;;;;;;;;7.17;57.36;97250.22;4977795;28;20294;-91
2023/11/09 06:09:10;;;;;;;;;;;;;;;6.99;57.96;97251.19;4983464;28;19930;-96
2023/11/09 06:12:00;;;;;;;;;;;;;;;6.96;57.90;97249.88;4979970;28;19932;-89
2023/11/09 06:14:49;;;;;;;;;;;;;;;6.93;58.02;97252.41;4979963;28;19934;-90
2023/11/09 06:17:38;;;;;;;;;;;;;;;6.92;57.68;97248.09;4973478;28;19929;-91
2023/11/09 06:20:26;;;;;;;;;;;;;;;7.03;57.77;97252.16;4989886;28;20053;-90
2023/11/09 06:23:16;;;;;;;;;;;;;;;7.13;57.58;97251.13;4981472;28;19955;-90
2023/11/09 06:26:05;;;;;;;;;;;;;;;7.05;57.62;97255.38;4975434;28;19933;-91
2023/11/09 06:28:54;;;;;;;;;;;;;;;6.47;58.93;97240.66;4979714;28;19926;-90
2023/11/09 06:31:43;;;;;;;;;;;;;;;6.74;58.82;97239.81;4987637;28;20312;-89
2023/11/09 06:34:31;;;;;;;;;;;;;;;6.87;58.80;97240.91;4994257;28;20039;-87
2023/11/09 06:37:20;;;;;;;;;;;;;;;6.86;58.53;97241.19;4989041;28;19926;-85
2023/11/09 06:40:11;;;;;;;;;;;;;;;7.04;58.15;97248.38;4993860;28;19930;-86
2023/11/09 06:43:00;;;;;;;;;;;;;;;7.08;57.44;97238.53;4992336;28;19926;-80
2023/11/09 06:45:48;;;;;;;;;;;;;;;6.94;58.44;97237.81;4976770;28;20008;-87
2023/11/09 06:48:36;;;;;;;;;;;;;;;7.07;57.86;97226.16;4977769;28;19932;-87
2023/11/09 06:51:25;;;;;;;;;;;;;;;7.22;57.50;97223.09;4984702;28;19926;-86
2023/11/09 06:54:13;;;;;;;;;;;;;;;7.31;57.49;97225.88;4992111;28;19952;-86
2023/11/09 06:57:03;;;;;;;;;;;;;;;7.28;57.66;97229.19;4990339;28;20027;-84
2023/11/09 06:59:51;;;;;;;;;;;;;;;7.32;57.07;97216.66;4985911;28;19926;-81
2023/11/09 07:02:39;;;;;;;;;;;;;;;7.23;57.67;97213.09;4984642;28;19957;-86
2023/11/09 07:05:27;;;;;;;;;;;;;;;7.31;57.39;97226.66;4978296;28;19933;-87
2023/11/09 07:08:16;;;;;;;;;;;;;;;7.32;57.07;97225.56;4996659;28;20436;-85
2023/11/09 07:11:05;;;;;;;;;;;;;;;7.25;57.56;97221.69;4972075;28;19933;-86
2023/11/09 07:13:54;;;;;;;;;;;;;;;7.44;57.27;97229.59;4992899;28;19933;-85
2023/11/09 07:16:43;;;;;;;;;;;;;;;7.53;56.62;97230.47;4987913;28;19926;-89
2023/11/09 07:19:31;;;;;;;;;;;;;;;7.61;56.27;97225.09;4975105;28;19985;-84
2023/11/09 07:22:35;;;;;;;;;;;;;;;7.52;56.74;97228.88;5109377;27;19912;-73
2023/11/09 07:25:23;;;;;;;;;;;;;;;7.60;56.65;97233.53;5095572;28;20027;-73
2023/11/09 07:28:11;;;;;;;;;;;;;;;7.65;56.54;97233.41;5112541;28;19920;-73
2023/11/09 07:31:00;;;;;;;;;;;;;;;7.44;57.15;97238.50;5089833;28;20357;-73
2023/11/09 07:33:49;;;;;;;;;;;;;;;7.53;56.46;97242.09;5101216;28;20457;-72
2023/11/09 07:36:37;;;;;;;;;;;;;;;7.66;56.40;97236.91;5099558;28;19928;-73
2023/11/09 07:39:28;;;;;;;;;;;;;;;7.80;56.33;97246.56;5102794;28;19930;-73
2023/11/09 07:42:15;;;;;;;;;;;;;;;7.80;56.44;97246.56;5109664;28;19931;-73
2023/11/09 07:45:04;;;;;;;;;;;;;;;7.70;56.54;97244.09;5103117;28;19924;-73
2023/11/09 07:47:52;;;;;;;;;;;;;;;7.86;56.31;97252.63;5086526;28;20049;-73
2023/11/09 07:50:41;;;;;;;;;;;;;;;7.88;56.69;97256.63;5081892;28;19935;-73
2023/11/09 07:53:29;;;;;;;;;;;;;;;7.96;56.10;97246.97;5103635;28;19941;-73
2023/11/09 07:56:18;;;;;;;;;;;;;;;7.88;55.71;97255.81;5097405;28;20036;-72
2023/11/09 07:59:06;;;;;;;;;;;;;;;7.81;56.32;97250.03;5095533;28;19935;-73
2023/11/09 08:01:55;;;;;;;;;;;;;;;7.81;55.94;97256.25;5101971;28;19928;-73
2023/11/09 08:04:48;;;;;;;;;;;;;;;7.73;56.59;97254.31;5094729;28;19924;-72
2023/11/09 08:07:36;;;;;;;;;;;;;;;7.85;56.28;97254.53;5106854;28;19923;-73
2023/11/09 08:10:24;;;;;;;;;;;;;;;7.92;56.24;97256.00;5112056;28;19923;-73
2023/11/09 08:13:14;;;;;;;;;;;;;;;7.86;55.02;97255.31;5104299;28;19920;-72
2023/11/09 08:16:02;;;;;;;;;;;;;;;7.95;55.75;97258.09;5102022;28;19928;-73
2023/11/09 08:18:50;;;;;;;;;;;;;;;7.97;55.62;97258.56;5095169;28;19928;-71
2023/11/09 08:21:38;;;;;;;;;;;;;;;8.01;55.44;97251.44;5099400;28;19931;-71
2023/11/09 08:24:26;;;;;;;;;;;;;;;8.13;55.37;97243.53;5100894;27;19931;-73
2023/11/09 08:27:14;;;;;;;;;;;;;;;8.17;55.41;97244.50;5111795;27;19932;-71
2023/11/09 08:30:07;;;;;;;;;;;;;;;8.12;55.24;97245.44;5134105;27;19926;-71
2023/11/09 08:32:59;;;;;;;;;;;;;;;8.07;55.43;97239.38;5105618;27;19927;-72
2023/11/09 08:35:51;;;;;;;;;;;;;;;8.29;54.85;97233.88;5105113;28;20026;-71
2023/11/09 08:38:39;;;;;;;;;;;;;;;8.35;54.44;97242.66;5107383;27;20010;-72
2023/11/09 08:41:27;;;;;;;;;;;;;;;8.42;54.44;97240.34;5108440;27;20069;-71
2023/11/09 08:44:16;;;;;;;;;;;;;;;8.43;55.23;97238.44;5110663;27;20015;-71
2023/11/09 08:47:07;;;;;;;;;;;;;;;8.62;54.18;97228.94;5110752;27;19935;-71
2023/11/09 08:49:55;;;;;;;;;;;;;;;8.67;54.33;97230.69;5097269;27;19931;-72
2023/11/09 08:52:43;;;;;;;;;;;;;;;8.65;53.67;97227.50;5112406;27;20010;-71
2023/11/09 08:55:31;;;;;;;;;;;;;;;8.81;53.44;97233.28;5095418;27;19927;-71
2023/11/09 08:58:19;;;;;;;;;;;;;;;8.75;53.69;97240.75;5095449;27;19938;-71
2023/11/09 09:01:16;;;;;;;;;;;;;;;8.64;53.03;97242.16;5102189;27;20077;-71
2023/11/09 09:04:06;;;;;;;;;;;;;;;8.76;53.35;97246.97;5118266;27;19928;-71
2023/11/09 09:06:54;;;;;;;;;;;;;;;8.83;53.66;97247.28;5094697;27;19939;-70
2023/11/09 09:09:43;;;;;;;;;;;;;;;8.99;53.27;97247.63;5100304;27;20107;-72
2023/11/09 09:12:33;;;;;;;;;;;;;;;8.93;53.56;97242.38;5095754;28;19920;-71
2023/11/09 09:15:21;;;;;;;;;;;;;;;8.95;52.79;97249.38;5104425;27;19934;-71
2023/11/09 09:18:10;;;;;;;;;;;;;;;9.15;52.50;97248.78;5122361;27;19920;-70
2023/11/09 09:20:59;;;;;;;;;;;;;;;9.08;51.83;97249.25;5101107;27;19950;-70
2023/11/09 09:23:51;;;;;;;;;;;;;;;8.80;52.03;97248.75;5087620;27;19971;-73
2023/11/09 09:26:39;;;;;;;;;;;;;;;8.92;51.82;97250.81;5101551;27;19935;-71
2023/11/09 09:29:30;;;;;;;;;;;;;;;9.04;52.73;97255.63;5104525;27;19932;-71
2023/11/09 09:32:18;;;;;;;;;;;;;;;9.13;51.80;97267.28;5103857;27;20014;-72
2023/11/09 09:35:10;;;;;;;;;;;;;;;8.88;52.18;97263.41;5107180;27;20365;-71
2023/11/09 09:37:59;;;;;;;;;;;;;;;9.01;52.16;97259.78;5106278;27;20000;-71
2023/11/09 09:40:53;;;;;;;;;;;;;;;9.22;52.88;97249.13;5106283;27;19934;-71
2023/11/09 09:43:42;;;;;;;;;;;;;;;9.37;52.12;97259.44;5098074;27;19920;-71
2023/11/09 09:46:30;;;;;;;;;;;;;;;9.49;51.41;97266.19;5097078;27;20002;-72
2023/11/09 09:49:18;;;;;;;;;;;;;;;9.47;50.93;97252.13;5100726;27;19920;-71
2023/11/09 09:52:07;;;;;;;;;;;;;;;9.74;51.55;97249.06;5094425;27;20375;-71
2023/11/09 09:54:58;;;;;;;;;;;;;;;9.68;50.65;97262.00;5108620;27;19930;-70
2023/11/09 09:57:47;;;;;;;;;;;;;;;9.85;51.09;97261.16;5103150;27;19924;-71
2023/11/09 10:00:38;;;;;;;;;;;;;;;9.92;51.24;97255.28;5101777;27;19942;-71
2023/11/09 10:03:26;;;;;;;;;;;;;;;9.76;51.02;97257.69;5103180;27;19927;-71
2023/11/09 10:06:14;;;;;;;;;;;;;;;9.93;50.69;97252.22;5108173;27;20265;-71
2023/11/09 10:09:05;;;;;;;;;;;;;;;10.07;51.50;97253.97;5087767;27;19919;-71
2023/11/09 10:11:55;;;;;;;;;;;;;;;10.06;51.19;97249.63;5108552;27;20402;-71
2023/11/09 10:14:43;;;;;;;;;;;;;;;9.57;52.18;97232.81;5105970;27;21991;-72
2023/11/09 10:17:32;;;;;;;;;;;;;;;9.78;51.93;97241.88;5088390;28;19938;-72
2023/11/09 10:20:21;;;;;;;;;;;;;;;9.95;51.39;97233.69;5094152;27;19977;-71
2023/11/09 10:23:12;;;;;;;;;;;;;;;9.87;51.14;97234.53;5113179;27;19920;-71
2023/11/09 10:26:01;;;;;;;;;;;;;;;9.98;51.92;97234.97;5093725;28;19920;-71
2023/11/09 10:28:55;;;;;;;;;;;;;;;10.03;51.01;97229.38;5087891;28;20380;-70
2023/11/09 10:31:44;;;;;;;;;;;;;;;10.03;51.08;97215.00;5109872;27;19923;-71
2023/11/09 10:34:38;;;;;;;;;;;;;;;10.15;51.12;97209.69;5099511;27;19927;-71
2023/11/09 10:37:29;;;;;;;;;;;;;;;10.01;51.67;97214.53;5122056;27;20031;-70
2023/11/09 10:40:17;;;;;;;;;;;;;;;10.19;51.14;97213.34;5101413;27;19935;-71
2023/11/09 10:43:05;;;;;;;;;;;;;;;10.29;50.24;97215.75;5101872;27;19923;-70
2023/11/09 10:45:57;;;;;;;;;;;;;;;10.22;49.96;97210.78;5101758;28;19920;-71
2023/11/09 10:48:48;;;;;;;;;;;;;;;10.31;50.31;97213.50;5114172;27;19923;-71
2023/11/09 10:51:37;;;;;;;;;;;;;;;10.25;50.42;97214.78;5089375;27;19920;-71
2023/11/09 10:54:25;;;;;;;;;;;;;;;10.20;50.29;97209.50;5109077;27;19927;-71
2023/11/09 10:57:18;;;;;;;;;;;;;;;10.35;50.21;97203.56;5107098;27;19920;-71
2023/11/09 11:00:10;;;;;;;;;;;;;;;10.41;50.79;97215.03;5095091;27;19926;-71
2023/11/09 11:03:04;;;;;;;;;;;;;;;10.47;50.50;97211.81;5111088;27;19927;-72
2023/11/09 11:05:54;;;;;;;;;;;;;;;10.55;51.15;97206.69;5100251;28;19940;-71
2023/11/09 11:08:43;;;;;;;;;;;;;;;10.52;50.26;97202.69;5123752;27;19992;-73
2023/11/09 11:11:33;;;;;;;;;;;;;;;10.53;51.27;97203.47;5116847;27;20006;-71
2023/11/09 11:14:24;;;;;;;;;;;;;;;10.38;50.75;97194.75;5099903;27;19928;-70
2023/11/09 11:17:15;;;;;;;;;;;;;;;10.34;51.35;97190.34;5096640;28;19928;-70
2023/11/09 11:20:27;;;;;;;;;;;;;;;10.55;50.74;97174.09;5101932;28;19938;-71
2023/11/09 11:23:22;;;;;;;;;;;;;;;10.57;50.50;97171.84;5105565;28;19919;-71
2023/11/09 11:26:10;;;;;;;;;;;;;;;10.36;51.21;97156.28;5095077;28;19924;-70
2023/11/09 11:29:00;;;;;;;;;;;;;;;10.60;50.68;97163.84;5110313;28;19923;-71
2023/11/09 11:31:48;;;;;;;;;;;;;;;10.67;50.44;97160.59;5111301;28;19942;-70
2023/11/09 11:34:46;;;;;;;;;;;;;;;10.81;51.09;97155.66;5089632;28;20409;-70
2023/11/09 11:37:35;;;;;;;;;;;;;;;10.78;50.76;97155.56;5116652;27;19920;-70
2023/11/09 11:40:24;;;;;;;;;;;;;;;10.73;51.51;97151.09;5089080;28;19976;-71
2023/11/09 11:43:13;;;;;;;;;;;;;;;10.71;51.53;97143.31;5086153;28;19954;-71
2023/11/09 11:46:03;;;;;;;;;;;;;;;10.48;51.68;97140.06;5106662;28;19966;-70
2023/11/09 11:48:53;;;;;;;;;;;;;;;10.59;52.58;97147.84;5099890;28;19974;-72
2023/11/09 11:51:42;;;;;;;;;;;;;;;10.58;52.88;97146.25;5092062;28;19947;-71
2023/11/09 11:54:33;;;;;;;;;;;;;;;10.75;52.28;97146.91;5083426;28;20069;-72
2023/11/09 11:57:25;;;;;;;;;;;;;;;10.66;52.24;97142.69;5115572;28;19974;-71
2023/11/09 12:00:13;;;;;;;;;;;;;;;10.57;51.98;97139.25;5093122;28;19926;-71
2023/11/09 12:03:04;;;;;;;;;;;;;;;10.66;52.71;97138.06;5093371;28;19919;-71
2023/11/09 12:05:57;;;;;;;;;;;;;;;10.54;52.81;97139.88;5085804;28;20326;-71
2023/11/09 12:08:46;;;;;;;;;;;;;;;10.62;53.36;97136.34;5104839;27;19919;-72
2023/11/09 12:11:43;;;;;;;;;;;;;;;10.72;52.51;97135.94;5098421;27;19920;-72
2023/11/09 12:14:33;;;;;;;;;;;;;;;10.70;52.43;97133.53;5088152;28;19928;-72
2023/11/09 12:17:23;;;;;;;;;;;;;;;10.87;52.44;97124.47;5093014;27;19919;-71
2023/11/09 12:20:11;;;;;;;;;;;;;;;10.90;52.56;97128.44;5080803;28;20285;-72
2023/11/09 12:23:04;;;;;;;;;;;;;;;11.00;52.42;97137.00;5112801;27;19927;-72
2023/11/09 12:25:52;;;;;;;;;;;;;;;10.93;53.20;97116.91;5090807;27;19981;-71
2023/11/09 12:28:43;;;;;;;;;;;;;;;10.92;54.03;97113.41;5111824;28;19920;-71
2023/11/09 12:31:31;;;;;;;;;;;;;;;10.87;53.27;97104.66;5113281;28;19931;-71
2023/11/09 12:34:22;;;;;;;;;;;;;;;11.00;52.17;97104.38;5114396;27;19927;-71
2023/11/09 12:37:13;;;;;;;;;;;;;;;10.98;53.71;97095.78;5106901;27;20331;-71
2023/11/09 12:40:04;;;;;;;;;;;;;;;10.84;53.67;97099.88;5124698;27;20414;-72
2023/11/09 12:42:52;;;;;;;;;;;;;;;11.02;53.21;97096.69;5101030;28;19926;-71
2023/11/09 12:45:42;;;;;;;;;;;;;;;10.83;54.89;97093.66;5102786;28;20486;-71
2023/11/09 12:48:36;;;;;;;;;;;;;;;11.05;53.28;97084.34;5086622;28;19927;-71
2023/11/09 12:51:24;;;;;;;;;;;;;;;11.01;54.57;97088.84;5104278;28;19920;-71
2023/11/09 12:54:13;;;;;;;;;;;;;;;11.10;54.32;97089.56;5099557;28;19963;-71
2023/11/09 12:57:04;;;;;;;;;;;;;;;11.14;53.69;97092.44;5107971;28;19996;-71
2023/11/09 12:59:55;;;;;;;;;;;;;;;11.08;54.75;97089.13;5103048;28;19919;-70
2023/11/09 13:02:47;;;;;;;;;;;;;;;11.22;54.15;97086.09;5102675;28;19932;-68
2023/11/09 13:05:39;;;;;;;;;;;;;;;11.23;54.23;97079.53;5104935;28;20383;-70
2023/11/09 13:08:27;;;;;;;;;;;;;;;11.26;54.70;97087.81;5104798;27;20377;-70
2023/11/09 13:11:22;;;;;;;;;;;;;;;11.09;54.79;97084.50;5091159;28;19920;-70
2023/11/09 13:14:16;;;;;;;;;;;;;;;11.11;55.29;97082.22;5088648;27;20393;-71
2023/11/09 13:17:06;;;;;;;;;;;;;;;11.15;55.28;97075.00;5084839;28;19951;-71
2023/11/09 13:19:56;;;;;;;;;;;;;;;11.31;54.59;97070.50;5112808;27;20394;-71
2023/11/09 13:22:44;;;;;;;;;;;;;;;11.17;55.68;97065.34;5109894;27;19920;-71
2023/11/09 13:25:33;;;;;;;;;;;;;;;11.27;56.05;97067.66;5101043;27;20014;-71
2023/11/09 13:28:23;;;;;;;;;;;;;;;11.26;55.72;97054.41;5102757;27;19919;-71
2023/11/09 13:31:19;;;;;;;;;;;;;;;11.25;55.72;97075.34;5099250;27;19942;-71
2023/11/09 13:34:07;;;;;;;;;;;;;;;11.30;56.26;97065.41;5101700;27;19934;-71
2023/11/09 13:36:58;;;;;;;;;;;;;;;11.22;56.83;97067.06;5104402;27;19927;-71
2023/11/09 13:39:52;;;;;;;;;;;;;;;11.14;57.12;97059.81;5110840;27;19919;-71
2023/11/09 13:42:40;;;;;;;;;;;;;;;11.21;57.53;97068.19;5107178;27;20012;-71
2023/11/09 13:45:34;;;;;;;;;;;;;;;11.27;57.56;97058.69;5089231;28;20247;-71
2023/11/09 13:48:24;;;;;;;;;;;;;;;11.22;58.14;97053.47;5116551;27;19943;-71
2023/11/09 13:51:14;;;;;;;;;;;;;;;11.40;57.08;97057.63;5095593;27;20429;-71
2023/11/09 13:54:25;;;;;;;;;;;;;;;11.40;57.38;97051.34;5100921;27;19928;-71
2023/11/09 13:57:24;;;;;;;;;;;;;;;11.59;56.70;97050.81;5099195;27;19943;-71
2023/11/09 14:00:31;;;;;;;;;;;;;;;11.70;56.59;97049.25;5101684;27;20108;-71
2023/11/09 14:03:20;;;;;;;;;;;;;;;11.70;57.20;97043.81;5101426;27;20093;-71
2023/11/09 14:06:13;;;;;;;;;;;;;;;11.76;56.01;97042.44;5097870;27;19996;-71
2023/11/09 14:09:01;;;;;;;;;;;;;;;11.83;56.43;97037.28;5083291;28;20050;-71
2023/11/09 14:11:57;;;;;;;;;;;;;;;11.54;56.62;97030.88;5094483;27;19920;-71
2023/11/09 14:14:48;;;;;;;;;;;;;;;11.53;56.87;97042.09;5110214;27;20306;-71
2023/11/09 14:17:47;;;;;;;;;;;;;;;11.55;57.04;97035.16;5104138;27;19927;-71
2023/11/09 14:20:35;;;;;;;;;;;;;;;11.61;56.55;97029.50;5111041;27;20265;-71
2023/11/09 14:23:24;;;;;;;;;;;;;;;11.68;56.43;97024.31;5115743;27;19939;-71
2023/11/09 14:26:13;;;;;;;;;;;;;;;11.61;56.89;97024.06;5097484;28;20289;-71
2023/11/09 14:29:05;;;;;;;;;;;;;;;11.65;56.47;97020.34;5101104;27;19923;-71
2023/11/09 14:31:55;;;;;;;;;;;;;;;11.63;56.78;97032.69;5110129;27;19931;-71
2023/11/09 14:34:45;;;;;;;;;;;;;;;11.47;57.46;97019.75;5104403;27;19920;-71
2023/11/09 14:37:36;;;;;;;;;;;;;;;11.63;56.96;97025.34;5111247;27;20411;-71
2023/11/09 14:40:26;;;;;;;;;;;;;;;11.59;56.85;97029.84;5119210;27;20288;-71
2023/11/09 14:43:14;;;;;;;;;;;;;;;11.69;56.96;97028.63;5109364;27;19928;-71
2023/11/09 14:46:05;;;;;;;;;;;;;;;11.67;56.83;97028.97;5110923;27;19928;-71
2023/11/09 14:48:56;;;;;;;;;;;;;;;11.65;56.91;97025.78;5103192;27;19927;-71
2023/11/09 14:51:48;;;;;;;;;;;;;;;11.76;56.84;97026.91;5095988;28;19949;-71
2023/11/09 14:54:40;;;;;;;;;;;;;;;11.64;57.59;97023.41;5110176;28;20361;-73
2023/11/09 14:57:28;;;;;;;;;;;;;;;11.67;56.85;97022.72;5098154;27;19927;-71
2023/11/09 15:00:20;;;;;;;;;;;;;;;11.59;57.48;97021.69;5112494;27;20502;-70